Time;durP1;ratioP1;P1;durP2;ratioP2;P2;SDS_P1;SDS_P2;PMS_P1;PMS_P2;Temp;Humidity;BMP_temperature;BMP_pressure;BME280_temperature;BME280_humidity;BME280_pressure;Samples;Min_cycle;Max_cycle;Signal;HPM_P1;HPM_P2
2022/11/19 00:00:27;;;;;;;25.70;13.57;;;;;;;;;;6155160;23;20005;-75
2022/11/19 00:02:54;;;;;;;25.45;14.43;;;;;;;;;;6155591;23;20017;-75
2022/11/19 00:05:40;;;;;;;23.58;14.32;;;;;;;;;;6153900;23;20012;-76
2022/11/19 00:08:16;;;;;;;23.40;12.88;;;;;;;;;;6153865;23;20005;-75
2022/11/19 00:11:03;;;;;;;24.65;13.38;;;;;;;;;;6155785;23;20001;-76
2022/11/19 00:13:29;;;;;;;23.35;13.32;;;;;;;;;;6155153;23;20076;-75
2022/11/19 00:16:07;;;;;;;23.70;13.07;;;;;;;;;;6153777;23;20430;-76
2022/11/19 00:18:36;;;;;;;24.35;13.00;;;;;;;;;;6155569;23;20049;-75
2022/11/19 00:21:14;;;;;;;23.27;12.63;;;;;;;;;;6153591;23;20016;-75
2022/11/19 00:23:49;;;;;;;25.30;13.70;;;;;;;;;;6154643;23;20005;-76
2022/11/19 00:26:24;;;;;;;22.77;12.25;;;;;;;;;;6153935;23;20155;-75
2022/11/19 00:29:12;;;;;;;26.17;12.82;;;;;;;;;;6155032;23;20465;-76
2022/11/19 00:31:42;;;;;;;25.10;13.43;;;;;;;;;;6155338;23;20005;-77
2022/11/19 00:34:26;;;;;;;23.73;12.52;;;;;;;;;;6153687;23;20001;-76
2022/11/19 00:36:55;;;;;;;24.13;12.02;;;;;;;;;;6154043;23;20016;-76
2022/11/19 00:39:32;;;;;;;26.30;13.02;;;;;;;;;;6155232;23;20009;-76
2022/11/19 00:41:58;;;;;;;24.95;14.35;;;;;;;;;;6154097;23;20021;-78
2022/11/19 00:44:24;;;;;;;24.60;12.25;;;;;;;;;;6153693;23;20006;-79
2022/11/19 00:46:50;;;;;;;23.25;13.52;;;;;;;;;;6154991;23;20060;-79
2022/11/19 00:49:19;;;;;;;24.80;12.82;;;;;;;;;;6154862;23;20040;-78
2022/11/19 00:51:45;;;;;;;23.10;12.90;;;;;;;;;;6155192;23;20006;-78
2022/11/19 00:54:11;;;;;;;22.30;13.05;;;;;;;;;;6154473;23;20016;-80
2022/11/19 00:56:37;;;;;;;25.10;13.43;;;;;;;;;;6154087;23;20028;-80
2022/11/19 00:59:03;;;;;;;28.60;14.43;;;;;;;;;;6154653;23;20006;-80
2022/11/19 01:01:32;;;;;;;29.60;13.73;;;;;;;;;;6154326;23;20014;-81
2022/11/19 01:03:58;;;;;;;25.27;13.77;;;;;;;;;;6153320;23;20135;-79
2022/11/19 01:06:25;;;;;;;24.88;13.25;;;;;;;;;;6153278;23;20080;-78
2022/11/19 01:08:51;;;;;;;23.50;12.93;;;;;;;;;;6153280;23;20013;-78
2022/11/19 01:11:22;;;;;;;23.13;12.55;;;;;;;;;;6153142;23;20005;-78
2022/11/19 01:13:57;;;;;;;;;;;;;;;;;;6155333;23;20003;-80
2022/11/19 01:16:43;;;;;;;22.88;11.93;;;;;;;;;;6154651;23;19928;-78
2022/11/19 01:19:10;;;;;;;21.90;12.07;;;;;;;;;;6127650;23;20033;-79
2022/11/19 01:21:36;;;;;;;24.42;12.40;;;;;;;;;;6154772;23;20044;-79
2022/11/19 01:24:03;;;;;;;25.58;12.70;;;;;;;;;;6154615;23;20076;-79
2022/11/19 01:26:29;;;;;;;24.63;13.27;;;;;;;;;;6156882;23;20012;-79
2022/11/19 01:28:55;;;;;;;25.10;12.98;;;;;;;;;;6156332;23;20001;-79
2022/11/19 01:31:23;;;;;;;28.38;14.82;;;;;;;;;;6153313;23;20096;-79
2022/11/19 01:33:50;;;;;;;29.42;14.18;;;;;;;;;;6155031;23;20081;-78
2022/11/19 01:36:19;;;;;;;30.98;15.43;;;;;;;;;;6153553;23;20010;-79
2022/11/19 01:38:49;;;;;;;25.55;13.98;;;;;;;;;;6152559;23;20060;-81
2022/11/19 01:41:16;;;;;;;25.75;14.13;;;;;;;;;;6163153;23;20021;-79
2022/11/19 01:43:42;;;;;;;26.80;14.60;;;;;;;;;;6185017;23;20004;-78
2022/11/19 01:46:09;;;;;;;27.52;14.00;;;;;;;;;;6185244;23;19993;-78
2022/11/19 01:48:44;;;;;;;23.02;13.05;;;;;;;;;;6158169;23;20001;-79
2022/11/19 01:51:16;;;;;;;28.50;14.02;;;;;;;;;;6157804;23;20064;-78
2022/11/19 01:53:45;;;;;;;23.17;12.32;;;;;;;;;;6184694;23;20053;-78
2022/11/19 01:56:11;;;;;;;26.75;14.50;;;;;;;;;;6158503;23;20029;-78
2022/11/19 01:58:41;;;;;;;28.67;14.68;;;;;;;;;;6184434;23;20062;-78
2022/11/19 02:01:08;;;;;;;31.30;14.32;;;;;;;;;;6184374;23;20005;-78
2022/11/19 02:03:35;;;;;;;26.45;13.90;;;;;;;;;;6157705;23;20001;-78
2022/11/19 02:06:02;;;;;;;31.63;14.93;;;;;;;;;;6158392;23;20020;-79
2022/11/19 02:08:34;;;;;;;29.42;14.90;;;;;;;;;;6158088;23;20390;-79
2022/11/19 02:11:14;;;;;;;26.52;13.43;;;;;;;;;;6158686;23;20036;-81
2022/11/19 02:13:48;;;;;;;28.45;14.57;;;;;;;;;;6160210;23;20049;-80
2022/11/19 02:16:34;;;;;;;29.63;14.93;;;;;;;;;;6163802;23;20007;-79
2022/11/19 02:19:12;;;;;;;28.65;13.77;;;;;;;;;;6163946;23;20029;-78
2022/11/19 02:21:45;;;;;;;24.70;13.98;;;;;;;;;;6164589;23;20005;-79
2022/11/19 02:24:32;;;;;;;26.20;14.18;;;;;;;;;;6161712;23;20006;-78
2022/11/19 02:27:08;;;;;;;27.63;15.65;;;;;;;;;;6158774;23;20001;-77
2022/11/19 02:29:43;;;;;;;30.83;15.32;;;;;;;;;;6159667;23;20031;-79
2022/11/19 02:32:25;;;;;;;29.23;15.73;;;;;;;;;;6162119;23;20005;-78
2022/11/19 02:35:12;;;;;;;29.40;14.88;;;;;;;;;;6159781;23;20334;-79
2022/11/19 02:37:43;;;;;;;33.28;16.38;;;;;;;;;;6159771;23;20032;-79
2022/11/19 02:40:11;;;;;;;27.70;15.00;;;;;;;;;;6160172;23;20009;-78
2022/11/19 02:42:49;;;;;;;29.40;15.00;;;;;;;;;;6185563;23;20461;-79
2022/11/19 02:45:19;;;;;;;29.88;15.75;;;;;;;;;;6159816;23;20005;-79
2022/11/19 02:47:56;;;;;;;26.67;15.35;;;;;;;;;;6186075;23;20005;-77
2022/11/19 02:50:24;;;;;;;29.20;14.35;;;;;;;;;;6159839;23;20005;-77
2022/11/19 02:52:56;;;;;;;30.55;15.10;;;;;;;;;;6172030;23;20047;-75
2022/11/19 02:55:22;;;;;;;34.53;16.65;;;;;;;;;;6199900;23;20073;-76
2022/11/19 02:57:58;;;;;;;27.83;14.27;;;;;;;;;;6167471;23;20005;-78
2022/11/19 03:06:06;;;;;;;26.88;13.38;;;;;;;;;;6186547;23;20015;-79
2022/11/19 03:08:32;;;;;;;29.85;14.77;;;;;;;;;;6185675;23;19997;-79
2022/11/19 03:11:07;;;;;;;26.27;14.77;;;;;;;;;;6160099;23;20005;-77
2022/11/19 03:16:40;;;;;;;28.27;14.82;;;;;;;;;;6187305;23;20015;-79
2022/11/19 03:19:33;;;;;;;29.33;14.68;;;;;;;;;;6159587;23;20418;-79
2022/11/19 03:22:09;;;;;;;27.42;13.70;;;;;;;;;;6137279;23;20389;-79
2022/11/19 03:24:37;;;;;;;26.77;13.18;;;;;;;;;;6187130;23;20035;-79
2022/11/19 03:27:08;;;;;;;27.85;13.40;;;;;;;;;;6161819;23;20477;-77
2022/11/19 03:29:38;;;;;;;28.90;15.23;;;;;;;;;;6162151;23;20080;-79
2022/11/19 03:32:09;;;;;;;26.73;14.23;;;;;;;;;;6162554;23;20005;-79
2022/11/19 03:34:35;;;;;;;30.48;14.30;;;;;;;;;;6163208;23;20033;-79
2022/11/19 03:37:02;;;;;;;27.00;13.45;;;;;;;;;;6163339;23;20005;-77
2022/11/19 03:39:31;;;;;;;25.92;13.23;;;;;;;;;;6189207;23;20012;-81
2022/11/19 03:41:58;;;;;;;26.55;14.38;;;;;;;;;;6181330;23;20009;-84
2022/11/19 03:44:31;;;;;;;24.30;12.95;;;;;;;;;;6183032;23;19994;-83
2022/11/19 03:47:18;;;;;;;30.80;14.57;;;;;;;;;;6196917;23;20006;-79
2022/11/19 03:49:47;;;;;;;36.88;16.30;;;;;;;;;;6163057;23;20012;-79
2022/11/19 03:52:15;;;;;;;19.07;9.83;;;;;;;;;;6161827;23;20013;-79
2022/11/19 03:54:42;;;;;;;28.88;15.07;;;;;;;;;;6184574;23;20009;-78
2022/11/19 03:57:09;;;;;;;29.08;13.63;;;;;;;;;;6184211;23;20069;-76
2022/11/19 03:59:35;;;;;;;31.85;16.88;;;;;;;;;;6162145;23;20001;-79
2022/11/19 04:02:05;;;;;;;26.27;13.63;;;;;;;;;;6162132;23;20006;-79
2022/11/19 04:04:35;;;;;;;27.55;15.07;;;;;;;;;;6180432;23;20002;-78
2022/11/19 04:07:02;;;;;;;22.73;11.40;;;;;;;;;;6179440;23;20006;-77
2022/11/19 04:09:28;;;;;;;25.88;13.77;;;;;;;;;;6178950;23;20001;-78
2022/11/19 04:11:54;;;;;;;30.08;15.20;;;;;;;;;;6179224;23;20005;-77
2022/11/19 04:14:20;;;;;;;24.40;13.02;;;;;;;;;;6179004;23;20012;-78
2022/11/19 04:16:48;;;;;;;24.83;13.25;;;;;;;;;;6179151;23;20036;-78
2022/11/19 04:19:16;;;;;;;29.67;13.52;;;;;;;;;;6155519;23;20005;-78
2022/11/19 04:21:42;;;;;;;35.15;15.02;;;;;;;;;;6179277;23;20006;-77
2022/11/19 04:24:08;;;;;;;28.55;15.00;;;;;;;;;;6180035;23;19998;-78
2022/11/19 04:26:40;;;;;;;29.10;14.20;;;;;;;;;;6157036;23;20002;-78
2022/11/19 04:29:07;;;;;;;26.92;14.20;;;;;;;;;;6180289;23;20008;-78
2022/11/19 04:31:33;;;;;;;29.33;14.65;;;;;;;;;;6181414;23;20016;-78
2022/11/19 04:34:01;;;;;;;34.38;15.48;;;;;;;;;;6180525;23;20044;-78
2022/11/19 04:36:30;;;;;;;30.90;14.60;;;;;;;;;;6179123;23;20001;-79
2022/11/19 04:38:56;;;;;;;31.20;15.45;;;;;;;;;;6178798;23;20014;-79
2022/11/19 04:41:22;;;;;;;28.83;13.75;;;;;;;;;;6178843;23;20076;-79
2022/11/19 04:43:54;;;;;;;26.98;13.90;;;;;;;;;;6179407;23;20076;-80
2022/11/19 04:46:20;;;;;;;31.38;15.50;;;;;;;;;;6178429;23;20334;-78
2022/11/19 04:48:48;;;;;;;31.50;15.25;;;;;;;;;;6178602;23;20006;-79
2022/11/19 04:51:15;;;;;;;31.05;15.95;;;;;;;;;;6160550;23;20073;-78
2022/11/19 04:53:43;;;;;;;27.50;14.43;;;;;;;;;;6181190;23;20005;-79
2022/11/19 04:56:12;;;;;;;28.90;15.15;;;;;;;;;;6178364;23;20002;-78
2022/11/19 04:58:38;;;;;;;25.98;14.68;;;;;;;;;;6177864;23;20409;-82
2022/11/19 05:01:08;;;;;;;27.83;15.13;;;;;;;;;;6178330;23;20028;-81
2022/11/19 05:03:34;;;;;;;26.85;14.23;;;;;;;;;;6178816;23;20006;-78
2022/11/19 05:06:02;;;;;;;31.33;14.95;;;;;;;;;;6155663;23;20419;-79
2022/11/19 05:08:28;;;;;;;31.15;15.88;;;;;;;;;;6178969;23;20001;-79
2022/11/19 05:10:54;;;;;;;28.13;15.00;;;;;;;;;;6155081;23;20013;-79
2022/11/19 05:13:20;;;;;;;29.17;13.90;;;;;;;;;;6178188;23;20002;-79
2022/11/19 05:15:47;;;;;;;27.80;15.18;;;;;;;;;;6178202;23;20052;-78
2022/11/19 05:18:13;;;;;;;28.80;14.45;;;;;;;;;;6177996;23;20014;-79
2022/11/19 05:20:41;;;;;;;30.23;14.80;;;;;;;;;;6177840;23;20489;-78
2022/11/19 05:23:07;;;;;;;31.13;14.85;;;;;;;;;;6178299;23;20006;-78
2022/11/19 05:25:33;;;;;;;27.05;14.95;;;;;;;;;;6178341;23;20352;-78
2022/11/19 05:28:05;;;;;;;30.17;14.80;;;;;;;;;;6178093;23;20029;-78
2022/11/19 05:30:31;;;;;;;25.13;12.77;;;;;;;;;;6155217;23;20056;-79
2022/11/19 05:32:57;;;;;;;30.38;14.30;;;;;;;;;;6178684;23;20430;-78
2022/11/19 05:35:31;;;;;;;32.08;15.13;;;;;;;;;;6178575;23;20517;-78
2022/11/19 05:37:57;;;;;;;30.27;14.57;;;;;;;;;;6155023;23;20025;-79
2022/11/19 05:40:23;;;;;;;27.75;14.75;;;;;;;;;;6154820;23;19998;-79
2022/11/19 05:42:51;;;;;;;26.33;13.57;;;;;;;;;;6184522;23;20029;-78
2022/11/19 05:45:18;;;;;;;28.52;14.02;;;;;;;;;;6158206;23;19997;-78
2022/11/19 05:47:46;;;;;;;26.67;14.10;;;;;;;;;;6163576;23;20007;-78
2022/11/19 05:50:12;;;;;;;24.90;14.00;;;;;;;;;;6187609;23;20005;-80
2022/11/19 05:52:38;;;;;;;26.83;14.88;;;;;;;;;;6183313;23;20001;-78
2022/11/19 05:55:09;;;;;;;31.35;13.35;;;;;;;;;;6184116;23;20433;-78
2022/11/19 05:57:35;;;;;;;26.55;14.57;;;;;;;;;;6156888;23;20008;-79
2022/11/19 06:00:02;;;;;;;26.65;14.40;;;;;;;;;;6184369;23;20464;-79
2022/11/19 06:02:31;;;;;;;26.67;14.57;;;;;;;;;;6157501;23;20081;-78
2022/11/19 06:04:57;;;;;;;29.98;14.13;;;;;;;;;;6157437;23;20036;-77
2022/11/19 06:07:23;;;;;;;29.00;14.60;;;;;;;;;;6157887;23;20063;-77
2022/11/19 06:09:49;;;;;;;28.33;13.73;;;;;;;;;;6184029;23;20021;-78
2022/11/19 06:12:15;;;;;;;28.25;14.70;;;;;;;;;;6158005;23;20323;-78
2022/11/19 06:14:41;;;;;;;30.85;14.65;;;;;;;;;;6160242;23;20031;-78
2022/11/19 06:17:07;;;;;;;29.95;14.95;;;;;;;;;;6163738;23;20109;-77
2022/11/19 06:19:33;;;;;;;28.88;14.32;;;;;;;;;;6164214;23;20100;-78
2022/11/19 06:21:59;;;;;;;29.83;14.88;;;;;;;;;;6161238;23;20472;-78
2022/11/19 06:24:25;;;;;;;27.60;15.40;;;;;;;;;;6185068;23;20017;-78
2022/11/19 06:26:51;;;;;;;29.08;15.95;;;;;;;;;;6162359;23;20314;-79
2022/11/19 06:29:18;;;;;;;29.35;15.02;;;;;;;;;;6160024;23;20055;-79
2022/11/19 06:31:44;;;;;;;25.13;12.80;;;;;;;;;;6158651;23;20008;-79
2022/11/19 06:34:13;;;;;;;25.70;14.52;;;;;;;;;;6157775;23;20005;-77
2022/11/19 06:36:39;;;;;;;28.05;15.05;;;;;;;;;;6157544;23;20012;-78
2022/11/19 06:39:05;;;;;;;33.42;15.82;;;;;;;;;;6183977;23;20016;-77
2022/11/19 06:45:08;;;;;;;30.88;16.13;;;;;;;;;;6124467;23;20021;-74
2022/11/19 06:47:57;;;;;;;31.60;16.75;;;;;;;;;;6124057;23;20037;-75
2022/11/19 06:50:26;;;;;;;28.75;15.38;;;;;;;;;;6124418;23;20350;-77
2022/11/19 06:53:18;;;;;;;27.55;15.05;;;;;;;;;;6124573;23;20010;-76
2022/11/19 06:56:16;;;;;;;;;;;;;;;;;;;;;
2022/11/19 06:59:20;;;;;;;33.33;16.73;;;;;;;;;;6123799;23;20097;-75
2022/11/19 07:59:32;;;;;;;;;;;;;;;;;;;;;
2022/11/19 08:18:28;;;;;;;;;;;;;;;;;;;;;
2022/11/19 08:21:32;;;;;;;33.67;17.27;;;;;;;;;;6214575;23;20088;-76
2022/11/19 08:27:32;;;;;;;36.42;18.65;;;;;;;;;;6063957;23;20050;-75
2022/11/19 08:33:46;;;;;;;34.15;19.17;;;;;;;;;;6064326;23;20123;-77
2022/11/19 08:46:33;;;;;;;38.10;21.05;;;;;;;;;;6006063;23;20112;-76
2022/11/19 08:49:44;;;;;;;;;;;;;;;;;;;;;
2022/11/19 08:52:59;;;;;;;;;;;;;;;;;;;;;
2022/11/19 09:02:20;;;;;;;29.48;17.88;;;;;;;;;;6178549;23;20024;-76
2022/11/19 09:05:07;;;;;;;;;;;;;;;;;;;;;
2022/11/19 09:07:39;;;;;;;32.15;17.98;;;;;;;;;;6183531;23;20092;-76
2022/11/19 09:10:26;;;;;;;31.23;18.63;;;;;;;;;;6184609;23;20060;-76
2022/11/19 09:13:01;;;;;;;33.00;18.42;;;;;;;;;;6182647;23;20083;-75
2022/11/19 09:15:27;;;;;;;35.38;18.88;;;;;;;;;;6184777;23;20074;-76
2022/11/19 09:18:06;;;;;;;30.15;17.08;;;;;;;;;;6184033;23;20001;-76
2022/11/19 09:20:48;;;;;;;33.17;17.80;;;;;;;;;;6184440;23;20051;-76
2022/11/19 09:23:20;;;;;;;32.13;17.83;;;;;;;;;;6203954;23;20449;-78
2022/11/19 09:25:56;;;;;;;35.33;19.30;;;;;;;;;;6214781;23;20027;-76
2022/11/19 09:35:02;;;;;;;;;;;;;;;;;;;;;
2022/11/19 09:40:25;;;;;;;34.42;19.77;;;;;;;;;;6182311;23;20155;-80
2022/11/19 09:43:04;;;;;;;;;;;;;;;;;;;;;
2022/11/19 09:49:28;;;;;;;37.40;20.70;;;;;;;;;;6005161;23;20014;-80
2022/11/19 09:52:22;;;;;;;37.70;19.52;;;;;;;;;;6068419;23;20008;-79
2022/11/19 09:57:54;;;;;;;32.33;18.85;;;;;;;;;;6183634;23;20008;-79
2022/11/19 10:00:25;;;;;;;35.08;19.08;;;;;;;;;;6184127;23;20008;-81
2022/11/19 10:06:31;;;;;;;;;;;;;;;;;;;;;
2022/11/19 10:12:18;;;;;;;39.10;21.55;;;;;;;;;;6185676;23;20103;-79
2022/11/19 10:17:52;;;;;;;35.22;19.52;;;;;;;;;;6187095;23;20009;-80
2022/11/19 10:20:36;;;;;;;39.53;20.80;;;;;;;;;;6187679;23;20029;-80
2022/11/19 10:23:16;;;;;;;35.10;20.30;;;;;;;;;;6185681;23;20013;-80
2022/11/19 10:25:49;;;;;;;35.20;19.38;;;;;;;;;;6186910;23;20032;-79
2022/11/19 10:28:34;;;;;;;39.13;21.05;;;;;;;;;;6183972;23;20032;-80
2022/11/19 10:31:29;;;;;;;34.55;21.00;;;;;;;;;;6183913;23;20009;-77
2022/11/19 10:34:26;;;;;;;34.85;20.50;;;;;;;;;;6155603;23;20008;-79
2022/11/19 10:37:12;;;;;;;;;;;;;;;;;;;;;
2022/11/19 10:40:03;;;;;;;32.83;18.50;;;;;;;;;;6167234;23;20085;-79
2022/11/19 10:43:15;;;;;;;25.35;14.50;;;;;;;;;;6186561;23;20036;-79
2022/11/19 10:45:58;;;;;;;;;;;;;;;;;;;;;
2022/11/19 10:48:27;;;;;;;34.45;20.45;;;;;;;;;;6188157;23;20088;-79
2022/11/19 10:51:16;;;;;;;32.60;19.15;;;;;;;;;;6189252;23;20354;-79
2022/11/19 10:57:45;;;;;;;;;;;;;;;;;;;;;
2022/11/19 11:00:56;;;;;;;;;;;;;;;;;;;;;
2022/11/19 11:04:02;;;;;;;25.20;14.82;;;;;;;;;;6009260;23;20075;-79
2022/11/19 11:07:09;;;;;;;27.60;15.18;;;;;;;;;;5985028;23;20075;-79
2022/11/19 11:15:39;;;;;;;24.95;15.07;;;;;;;;;;6063449;23;20019;-83
2022/11/19 11:18:09;;;;;;;22.80;13.88;;;;;;;;;;6210591;23;19993;-83
2022/11/19 11:23:45;;;;;;;22.77;13.35;;;;;;;;;;6143422;23;20048;-78
2022/11/19 11:26:36;;;;;;;23.55;14.18;;;;;;;;;;6159974;23;20348;-79
2022/11/19 11:29:28;;;;;;;17.23;9.85;;;;;;;;;;6158237;23;19997;-79
2022/11/19 11:32:17;;;;;;;17.20;10.43;;;;;;;;;;6184620;23;20005;-80
2022/11/19 11:35:22;;;;;;;;;;;;;;;;;;;;;
2022/11/19 11:44:37;;;;;;;7.25;4.50;;;;;;;;;;6144970;23;20024;-79
2022/11/19 11:47:26;;;;;;;6.53;4.40;;;;;;;;;;6168340;23;20005;-79
2022/11/19 11:50:01;;;;;;;12.20;6.47;;;;;;;;;;6190555;23;20000;-79
2022/11/19 11:52:46;;;;;;;;;;;;;;;;;;;;;
2022/11/19 11:58:29;;;;;;;8.07;5.35;;;;;;;;;;6188591;23;20005;-80
2022/11/19 12:01:31;;;;;;;8.63;4.93;;;;;;;;;;6164548;23;20016;-77
2022/11/19 12:04:00;;;;;;;6.75;4.47;;;;;;;;;;6188791;23;20123;-79
2022/11/19 12:06:38;;;;;;;7.10;4.65;;;;;;;;;;6165822;23;20012;-79
2022/11/19 12:09:10;;;;;;;7.93;4.97;;;;;;;;;;6165216;23;20075;-79
2022/11/19 12:11:57;;;;;;;8.32;5.07;;;;;;;;;;6187837;23;20028;-79
2022/11/19 12:14:31;;;;;;;6.72;4.82;;;;;;;;;;6185131;23;20434;-80
2022/11/19 12:17:05;;;;;;;5.57;4.13;;;;;;;;;;6159280;23;20039;-79
2022/11/19 12:19:42;;;;;;;8.10;5.35;;;;;;;;;;6185521;23;20005;-82
2022/11/19 12:22:11;;;;;;;7.72;4.90;;;;;;;;;;6185287;23;20084;-79
2022/11/19 12:24:56;;;;;;;6.85;4.20;;;;;;;;;;6185511;23;20181;-79
2022/11/19 12:27:33;;;;;;;7.82;5.25;;;;;;;;;;6158870;23;20031;-79
2022/11/19 12:30:05;;;;;;;8.73;5.50;;;;;;;;;;6163791;23;20091;-79
2022/11/19 12:32:54;;;;;;;7.82;5.32;;;;;;;;;;6187748;23;20012;-78
2022/11/19 12:35:40;;;;;;;9.10;5.40;;;;;;;;;;6184725;23;20009;-80
2022/11/19 12:38:06;;;;;;;8.82;5.45;;;;;;;;;;6185155;23;20464;-78
2022/11/19 12:40:46;;;;;;;10.00;5.80;;;;;;;;;;6184597;23;20005;-78
2022/11/19 12:43:31;;;;;;;6.18;4.45;;;;;;;;;;6184142;23;20013;-78
2022/11/19 12:46:03;;;;;;;8.68;5.35;;;;;;;;;;6185483;23;20016;-81
2022/11/19 12:48:37;;;;;;;9.23;5.63;;;;;;;;;;6186920;23;20025;-80
2022/11/19 12:51:03;;;;;;;9.70;5.45;;;;;;;;;;6187825;23;20048;-82
2022/11/19 12:53:38;;;;;;;9.60;5.55;;;;;;;;;;6186791;23;20012;-80
2022/11/19 12:56:25;;;;;;;10.52;5.70;;;;;;;;;;6160449;23;20092;-79
2022/11/19 12:59:09;;;;;;;7.15;4.90;;;;;;;;;;6186659;23;20485;-79
2022/11/19 13:01:39;;;;;;;11.80;6.70;;;;;;;;;;6160006;23;20452;-81
2022/11/19 13:04:26;;;;;;;10.30;6.00;;;;;;;;;;6186019;23;20001;-78
2022/11/19 13:07:02;;;;;;;8.80;5.68;;;;;;;;;;6158768;23;20433;-80
2022/11/19 13:09:34;;;;;;;10.98;5.53;;;;;;;;;;6185634;23;20442;-79
2022/11/19 13:12:02;;;;;;;8.57;5.32;;;;;;;;;;6187817;23;20040;-79
2022/11/19 13:14:37;;;;;;;9.02;5.72;;;;;;;;;;6186354;23;20385;-78
2022/11/19 13:17:04;;;;;;;7.78;5.18;;;;;;;;;;6186331;23;20009;-80
2022/11/19 13:19:36;;;;;;;8.98;5.55;;;;;;;;;;6161147;23;20013;-82
2022/11/19 13:22:23;;;;;;;8.82;5.50;;;;;;;;;;6187761;23;20498;-80
2022/11/19 13:24:51;;;;;;;9.77;5.60;;;;;;;;;;6193596;23;20004;-81
2022/11/19 13:27:20;;;;;;;8.90;5.60;;;;;;;;;;6189992;23;20275;-79
2022/11/19 13:30:12;;;;;;;7.80;5.15;;;;;;;;;;6185759;23;19998;-78
2022/11/19 13:32:42;;;;;;;8.75;6.15;;;;;;;;;;6161347;23;20040;-78
2022/11/19 13:35:23;;;;;;;7.93;5.18;;;;;;;;;;6186179;23;20425;-77
2022/11/19 13:38:08;;;;;;;9.63;5.47;;;;;;;;;;6186520;23;20001;-79
2022/11/19 13:40:40;;;;;;;7.88;5.38;;;;;;;;;;6160546;23;20032;-79
2022/11/19 13:46:05;;;;;;;7.93;5.28;;;;;;;;;;6184277;23;20033;-77
2022/11/19 13:48:33;;;;;;;11.45;6.43;;;;;;;;;;6184333;23;20010;-78
2022/11/19 13:51:02;;;;;;;7.82;5.40;;;;;;;;;;6158098;23;20005;-79
2022/11/19 13:53:40;;;;;;;10.48;6.43;;;;;;;;;;6157791;23;20059;-77
2022/11/19 13:56:14;;;;;;;10.23;6.13;;;;;;;;;;6158107;23;20024;-77
2022/11/19 13:58:44;;;;;;;10.38;6.20;;;;;;;;;;6158324;23;20009;-79
2022/11/19 14:01:29;;;;;;;8.20;5.75;;;;;;;;;;6185233;23;20342;-79
2022/11/19 14:04:14;;;;;;;9.50;6.28;;;;;;;;;;6185466;23;20100;-79
2022/11/19 14:07:06;;;;;;;10.55;6.65;;;;;;;;;;6158165;23;20005;-78
2022/11/19 14:09:41;;;;;;;12.63;7.80;;;;;;;;;;6147093;23;20353;-78
2022/11/19 14:12:07;;;;;;;10.30;6.70;;;;;;;;;;6184926;23;20070;-78
2022/11/19 14:26:37;;;;;;;13.68;7.00;;;;;;;;;;6188891;23;20008;-79
2022/11/19 14:29:03;;;;;;;8.60;5.22;;;;;;;;;;6191920;23;20005;-79
2022/11/19 14:31:29;;;;;;;11.43;6.57;;;;;;;;;;6162754;23;20389;-79
2022/11/19 14:33:56;;;;;;;10.80;6.68;;;;;;;;;;6163524;23;20002;-79
2022/11/19 14:36:29;;;;;;;8.88;5.90;;;;;;;;;;6191909;23;20079;-78
2022/11/19 14:38:58;;;;;;;11.73;6.32;;;;;;;;;;6165558;23;20006;-78
2022/11/19 14:41:31;;;;;;;10.95;6.35;;;;;;;;;;6168261;23;20294;-79
2022/11/19 14:44:11;;;;;;;10.02;6.25;;;;;;;;;;6187200;23;20012;-78
2022/11/19 14:46:42;;;;;;;10.77;6.00;;;;;;;;;;6189678;23;20028;-82
2022/11/19 14:49:31;;;;;;;13.75;6.63;;;;;;;;;;6188430;23;20024;-79
2022/11/19 14:51:58;;;;;;;11.98;6.80;;;;;;;;;;6189015;23;20160;-79
2022/11/19 14:54:32;;;;;;;13.45;7.90;;;;;;;;;;6187672;23;20016;-78
2022/11/19 14:57:02;;;;;;;13.85;8.02;;;;;;;;;;6186680;23;20001;-82
2022/11/19 14:59:30;;;;;;;11.98;7.65;;;;;;;;;;6188024;23;20032;-79
2022/11/19 15:02:17;;;;;;;11.70;7.35;;;;;;;;;;6188604;23;20068;-77
2022/11/19 15:04:49;;;;;;;18.55;8.70;;;;;;;;;;6170414;23;20004;-78
2022/11/19 15:07:24;;;;;;;18.85;9.30;;;;;;;;;;6191887;23;20453;-79
2022/11/19 15:10:12;;;;;;;29.92;11.82;;;;;;;;;;6202547;23;20163;-82
2022/11/19 15:12:44;;;;;;;19.70;10.75;;;;;;;;;;6206661;23;20037;-79
2022/11/19 15:15:29;;;;;;;18.30;9.15;;;;;;;;;;6209129;23;20009;-79
2022/11/19 15:17:55;;;;;;;23.02;9.98;;;;;;;;;;6197826;23;20008;-80
2022/11/19 15:20:48;;;;;;;16.48;8.70;;;;;;;;;;6186190;23;20005;-78
2022/11/19 15:23:17;;;;;;;18.15;8.65;;;;;;;;;;6184971;23;20009;-79
2022/11/19 15:25:49;;;;;;;17.38;9.00;;;;;;;;;;6186641;23;20008;-79
2022/11/19 15:28:34;;;;;;;18.95;10.50;;;;;;;;;;6192518;23;20011;-80
2022/11/19 15:31:32;;;;;;;20.08;10.73;;;;;;;;;;6198584;23;20047;-79
2022/11/19 15:34:17;;;;;;;19.08;10.40;;;;;;;;;;6142150;23;20104;-80
2022/11/19 15:36:47;;;;;;;16.73;9.85;;;;;;;;;;6188444;23;20005;-78
2022/11/19 15:39:15;;;;;;;14.32;7.95;;;;;;;;;;6187435;23;20005;-79
2022/11/19 15:41:59;;;;;;;25.25;12.27;;;;;;;;;;6187751;23;20020;-80
2022/11/19 15:44:26;;;;;;;19.25;11.27;;;;;;;;;;6189958;23;20001;-79
2022/11/19 15:47:02;;;;;;;21.50;12.32;;;;;;;;;;6190436;23;20088;-79
2022/11/19 15:49:29;;;;;;;22.30;12.55;;;;;;;;;;6191988;23;20001;-80
2022/11/19 15:52:05;;;;;;;37.47;18.33;;;;;;;;;;6185832;23;20301;-77
2022/11/19 15:54:33;;;;;;;48.35;22.45;;;;;;;;;;6187350;23;20009;-79
2022/11/19 15:57:04;;;;;;;45.30;22.90;;;;;;;;;;6190099;23;20064;-78
2022/11/19 15:59:30;;;;;;;;;;;;;;;;;;6189950;23;20040;-77
2022/11/19 16:02:15;;;;;;;22.67;12.65;;;;;;;;;;6188044;23;19912;-80
2022/11/19 16:04:41;;;;;;;21.27;11.02;;;;;;;;;;6190508;23;20329;-78
2022/11/19 16:07:08;;;;;;;22.70;12.18;;;;;;;;;;6186753;23;20001;-79
2022/11/19 16:09:34;;;;;;;22.65;12.35;;;;;;;;;;6185726;23;20001;-78
2022/11/19 16:17:36;;;;;;;31.30;16.90;;;;;;;;;;6185284;23;20184;-78
2022/11/19 16:20:12;;;;;;;27.48;15.18;;;;;;;;;;6186843;23;20012;-79
2022/11/19 16:22:52;;;;;;;34.65;16.05;;;;;;;;;;6184658;23;20009;-78
2022/11/19 16:25:33;;;;;;;34.55;17.33;;;;;;;;;;6185498;23;20163;-79
2022/11/19 16:28:01;;;;;;;25.02;14.10;;;;;;;;;;6185701;23;20084;-80
2022/11/19 16:30:38;;;;;;;23.50;13.48;;;;;;;;;;6185124;23;20055;-79
2022/11/19 16:33:04;;;;;;;26.02;14.27;;;;;;;;;;6186634;23;20028;-79
2022/11/19 16:35:31;;;;;;;35.95;16.05;;;;;;;;;;6186595;23;20334;-80
2022/11/19 16:37:58;;;;;;;46.00;19.00;;;;;;;;;;6186786;23;20077;-80
2022/11/19 16:42:15;;;;;;;56.20;23.67;;;;;;;;;;6187600;23;20009;-80
2022/11/19 16:43:16;;;;;;;55.92;25.05;;;;;;;;;;6185063;23;20489;-78
2022/11/19 16:45:44;;;;;;;53.30;23.08;;;;;;;;;;6157953;23;20036;-78
2022/11/19 16:48:30;;;;;;;52.70;23.60;;;;;;;;;;6159737;23;20005;-81
2022/11/19 16:50:56;;;;;;;43.88;21.75;;;;;;;;;;6156965;23;20092;-79
2022/11/19 16:53:42;;;;;;;44.33;24.52;;;;;;;;;;6158558;23;20005;-78
2022/11/19 16:56:08;;;;;;;48.45;25.05;;;;;;;;;;6159058;23;20008;-80
2022/11/19 16:58:34;;;;;;;50.38;23.63;;;;;;;;;;6159183;23;20468;-78
2022/11/19 17:01:03;;;;;;;48.30;25.15;;;;;;;;;;6185677;23;20330;-77
2022/11/19 17:03:33;;;;;;;53.70;25.55;;;;;;;;;;6185347;23;20004;-79
2022/11/19 17:05:59;;;;;;;45.15;23.50;;;;;;;;;;6158382;23;20337;-79
2022/11/19 17:08:30;;;;;;;45.22;23.50;;;;;;;;;;6184680;23;20429;-79
2022/11/19 17:14:04;;;;;;;43.22;24.33;;;;;;;;;;6185160;23;20063;-78
2022/11/19 17:16:35;;;;;;;44.50;22.92;;;;;;;;;;6157931;23;20471;-79
2022/11/19 17:19:12;;;;;;;48.78;24.70;;;;;;;;;;6157997;23;20001;-78
2022/11/19 17:21:38;;;;;;;39.42;23.50;;;;;;;;;;6158377;23;20005;-78
2022/11/19 17:24:05;;;;;;;50.03;25.50;;;;;;;;;;6185359;23;20008;-78
2022/11/19 17:26:31;;;;;;;45.35;24.50;;;;;;;;;;6187740;23;20008;-79
2022/11/19 17:29:00;;;;;;;47.60;25.63;;;;;;;;;;6158658;23;19997;-79
2022/11/19 17:31:27;;;;;;;46.95;25.10;;;;;;;;;;6186070;23;19993;-79
2022/11/19 17:34:19;;;;;;;49.85;25.35;;;;;;;;;;6159879;23;20009;-78
2022/11/19 17:36:45;;;;;;;44.92;22.95;;;;;;;;;;6185259;23;20005;-78
2022/11/19 17:39:12;;;;;;;45.20;22.98;;;;;;;;;;6184750;23;20083;-78
2022/11/19 17:44:38;;;;;;;45.33;22.55;;;;;;;;;;6185372;23;20012;-78
2022/11/19 17:47:19;;;;;;;44.47;22.85;;;;;;;;;;6183810;23;20015;-77
2022/11/19 17:49:45;;;;;;;;;;;;;;;;;;6186564;23;20001;-79
2022/11/19 17:52:17;;;;;;;39.75;21.05;;;;;;;;;;6189474;23;19908;-81
2022/11/19 17:54:45;;;;;;;41.55;22.25;;;;;;;;;;6187455;23;20009;-79
2022/11/19 17:57:11;;;;;;;41.60;21.98;;;;;;;;;;6190671;23;20009;-80
2022/11/19 17:59:37;;;;;;;43.92;22.17;;;;;;;;;;6189547;23;20072;-79
2022/11/19 18:02:03;;;;;;;41.97;21.95;;;;;;;;;;6190084;23;20001;-79
2022/11/19 18:04:29;;;;;;;41.75;22.35;;;;;;;;;;6187457;23;20083;-79
2022/11/19 18:06:57;;;;;;;42.45;21.90;;;;;;;;;;6188978;23;20028;-79
2022/11/19 18:09:29;;;;;;;39.20;20.70;;;;;;;;;;6188609;23;20008;-79
2022/11/19 18:11:55;;;;;;;40.55;20.67;;;;;;;;;;6189318;23;20009;-78
2022/11/19 18:14:22;;;;;;;36.28;19.30;;;;;;;;;;6185737;23;20067;-78
2022/11/19 18:16:48;;;;;;;37.38;19.58;;;;;;;;;;6186006;23;20029;-78
2022/11/19 18:19:25;;;;;;;40.83;20.40;;;;;;;;;;6187614;23;20021;-80
2022/11/19 18:21:51;;;;;;;35.08;19.98;;;;;;;;;;6187094;23;20076;-79